createdAt,value
2018-12-16T00:01:37.735Z,-0.40
2018-12-16T00:04:15.766Z,-0.50
2018-12-16T00:06:53.230Z,-0.40
2018-12-16T00:09:28.970Z,-0.40
2018-12-16T00:12:05.345Z,-0.40
2018-12-16T00:14:41.586Z,-0.30
2018-12-16T00:17:17.339Z,-0.40
2018-12-16T00:19:53.325Z,-0.30
2018-12-16T00:22:30.472Z,-0.30
2018-12-16T00:25:07.970Z,-0.30
2018-12-16T00:27:43.863Z,-0.30
2018-12-16T00:30:19.934Z,-0.30
2018-12-16T00:32:55.778Z,-0.30
2018-12-16T00:35:32.550Z,-0.30
2018-12-16T00:38:08.612Z,-0.30
2018-12-16T00:47:41.833Z,-0.30
2018-12-16T00:50:17.633Z,-0.30
2018-12-16T00:52:53.460Z,-0.30
2018-12-16T00:55:29.423Z,-0.30
2018-12-16T00:58:06.074Z,-0.20
2018-12-16T01:00:41.864Z,-0.30
2018-12-16T01:03:18.547Z,-0.30
2018-12-16T01:05:54.593Z,-0.30
2018-12-16T01:08:31.120Z,-0.30
2018-12-16T01:11:07.001Z,-0.30
2018-12-16T01:13:47.251Z,-0.30
2018-12-16T01:16:24.325Z,-0.30
2018-12-16T01:19:00.098Z,-0.30
2018-12-16T01:23:00.400Z,-0.30
2018-12-16T01:25:36.550Z,-0.20
2018-12-16T01:28:12.937Z,-0.30
2018-12-16T01:30:49.440Z,-0.30
2018-12-16T01:33:26.150Z,-0.30
2018-12-16T01:36:01.955Z,-0.30
2018-12-16T01:38:38.694Z,-0.20
2018-12-16T01:41:14.408Z,-0.20
2018-12-16T01:43:50.425Z,-0.20
2018-12-16T01:46:26.352Z,-0.20
2018-12-16T01:49:03.082Z,-0.20
2018-12-16T01:51:38.858Z,-0.20
2018-12-16T01:54:14.846Z,-0.20
2018-12-16T01:56:50.806Z,-0.20
2018-12-16T01:59:26.579Z,-0.20
2018-12-16T02:02:02.440Z,-0.10
2018-12-16T02:04:38.060Z,-0.10
2018-12-16T02:07:13.988Z,-0.10
2018-12-16T02:09:49.724Z,-0.20
2018-12-16T02:12:26.450Z,-0.10
2018-12-16T02:15:03.286Z,-0.20
2018-12-16T02:17:39.960Z,-0.20
2018-12-16T02:20:15.670Z,-0.10
2018-12-16T02:22:56.663Z,-0.10
2018-12-16T02:25:29.564Z,-0.10
2018-12-16T02:28:05.471Z,-0.10
2018-12-16T02:30:41.406Z,-0.10
2018-12-16T02:33:18.215Z,-0.10
2018-12-16T02:35:53.877Z,-0.10
2018-12-16T02:38:30.140Z,-0.10
2018-12-16T02:41:06.840Z,-0.10
2018-12-16T02:43:42.683Z,-0.10
2018-12-16T02:46:17.733Z,-0.10
2018-12-16T02:48:54.271Z,-0.20
2018-12-16T02:51:29.339Z,-0.10
2018-12-16T02:54:05.382Z,-0.20
2018-12-16T02:56:41.172Z,-0.10
2018-12-16T02:59:17.435Z,-0.20
2018-12-16T03:01:54.019Z,-0.10
2018-12-16T03:04:29.888Z,-0.20
2018-12-16T03:07:05.870Z,-0.10
2018-12-16T03:09:42.470Z,-0.10
2018-12-16T03:12:17.577Z,-0.10
2018-12-16T03:14:53.171Z,-0.20
2018-12-16T03:17:28.887Z,-0.10
2018-12-16T03:20:05.536Z,-0.10
2018-12-16T03:22:43.046Z,-0.10
2018-12-16T03:25:18.933Z,-0.10
2018-12-16T03:27:55.714Z,-0.10
2018-12-16T03:30:32.515Z,-0.10
2018-12-16T03:33:09.312Z,-0.10
2018-12-16T03:35:46.006Z,-0.10
2018-12-16T03:38:21.919Z,-0.10
2018-12-16T03:40:58.947Z,-0.10
2018-12-16T03:43:35.567Z,-0.10
2018-12-16T03:46:11.329Z,-0.10
2018-12-16T03:48:46.987Z,-0.10
2018-12-16T03:51:22.816Z,0.00
2018-12-16T03:53:58.689Z,-0.10
2018-12-16T03:56:34.636Z,0.00
2018-12-16T03:59:18.905Z,0.00
2018-12-16T04:01:57.887Z,0.00
2018-12-16T04:04:34.006Z,0.00
2018-12-16T04:07:10.903Z,0.00
2018-12-16T04:09:47.654Z,0.00
2018-12-16T04:12:24.401Z,0.10
2018-12-16T04:15:00.172Z,0.10
2018-12-16T04:17:36.109Z,0.10
2018-12-16T04:20:11.875Z,0.10
2018-12-16T04:22:49.646Z,0.10
2018-12-16T04:25:25.835Z,0.10
2018-12-16T04:28:02.557Z,0.10
2018-12-16T04:30:38.394Z,0.10
2018-12-16T04:33:14.315Z,0.10
2018-12-16T04:35:50.048Z,0.10
2018-12-16T04:38:26.044Z,0.10
2018-12-16T04:41:01.871Z,0.10
2018-12-16T04:43:37.804Z,0.10
2018-12-16T04:46:13.463Z,0.10
2018-12-16T04:48:49.371Z,0.10
2018-12-16T04:51:25.271Z,0.10
2018-12-16T04:54:00.307Z,0.10
2018-12-16T04:56:36.379Z,0.10
2018-12-16T04:59:12.837Z,0.20
2018-12-16T05:01:48.638Z,0.20
2018-12-16T05:04:24.302Z,0.20
2018-12-16T05:07:00.076Z,0.20
2018-12-16T05:09:35.783Z,0.20
2018-12-16T05:12:11.860Z,0.20
2018-12-16T05:14:47.727Z,0.20
2018-12-16T05:17:23.951Z,0.20
2018-12-16T05:19:59.612Z,0.20
2018-12-16T05:22:35.440Z,0.20
2018-12-16T05:25:11.371Z,0.30
2018-12-16T05:27:47.098Z,0.20
2018-12-16T05:30:24.264Z,0.30
2018-12-16T05:33:00.678Z,0.30
2018-12-16T05:35:36.705Z,0.30
2018-12-16T05:38:13.303Z,0.20
2018-12-16T05:40:49.180Z,0.30
2018-12-16T05:43:25.618Z,0.20
2018-12-16T05:46:01.181Z,0.30
2018-12-16T05:48:37.895Z,0.30
2018-12-16T05:51:16.527Z,0.30
2018-12-16T05:53:53.511Z,0.30
2018-12-16T05:56:29.994Z,0.30
2018-12-16T05:59:06.224Z,0.40
2018-12-16T06:01:41.831Z,0.40
2018-12-16T06:04:19.098Z,0.40
2018-12-16T06:06:57.072Z,0.40
2018-12-16T06:09:33.894Z,0.40
2018-12-16T06:12:10.549Z,0.40
2018-12-16T06:14:46.480Z,0.40
2018-12-16T06:17:21.898Z,0.40
2018-12-16T06:20:00.799Z,0.40
2018-12-16T06:22:36.414Z,0.40
2018-12-16T06:25:14.452Z,0.40
2018-12-16T06:27:50.907Z,0.30
2018-12-16T06:30:29.656Z,0.40
2018-12-16T06:33:05.858Z,0.40
2018-12-16T06:35:43.081Z,0.40
2018-12-16T06:38:22.048Z,0.40
2018-12-16T06:41:00.207Z,0.40
2018-12-16T06:43:36.397Z,0.40
2018-12-16T06:46:13.691Z,0.50
2018-12-16T06:48:53.048Z,0.50
2018-12-16T06:51:31.446Z,0.50
2018-12-16T06:54:06.915Z,0.50
2018-12-16T06:56:49.589Z,0.50
2018-12-16T06:59:25.886Z,0.50
2018-12-16T07:02:02.405Z,0.60
2018-12-16T07:04:41.613Z,0.50
2018-12-16T07:07:18.406Z,0.50
2018-12-16T07:09:58.190Z,0.50
2018-12-16T07:12:35.535Z,0.50
2018-12-16T07:15:11.978Z,0.50
2018-12-16T07:17:49.801Z,0.50
2018-12-16T07:20:26.170Z,0.60
2018-12-16T07:23:03.647Z,0.60
2018-12-16T07:25:42.646Z,0.60
2018-12-16T07:28:22.565Z,0.60
2018-12-16T07:30:59.858Z,0.60
2018-12-16T07:33:36.565Z,0.60
2018-12-16T07:36:14.317Z,0.70
2018-12-16T07:38:50.911Z,0.70
2018-12-16T07:41:27.342Z,0.70
2018-12-16T07:44:04.590Z,0.60
2018-12-16T07:46:42.303Z,0.70
2018-12-16T07:49:17.949Z,0.70
2018-12-16T07:51:53.255Z,0.60
2018-12-16T07:54:29.270Z,0.70
2018-12-16T07:57:05.966Z,0.70
2018-12-16T07:59:43.822Z,0.70
2018-12-16T08:02:19.635Z,0.70
2018-12-16T08:04:55.546Z,0.70
2018-12-16T08:07:31.268Z,0.70
2018-12-16T08:10:07.504Z,0.80
2018-12-16T08:12:44.231Z,0.80
2018-12-16T08:15:20.274Z,0.80
2018-12-16T08:17:56.932Z,0.70
2018-12-16T08:20:32.771Z,0.80
2018-12-16T08:23:08.595Z,0.80
2018-12-16T08:25:44.249Z,0.80
2018-12-16T08:28:20.298Z,0.80
2018-12-16T08:30:56.051Z,0.80
2018-12-16T08:33:31.796Z,0.80
2018-12-16T08:36:07.568Z,0.80
2018-12-16T08:38:43.518Z,0.80
2018-12-16T08:41:19.483Z,0.80
2018-12-16T08:43:58.426Z,0.90
2018-12-16T08:46:34.522Z,0.80
2018-12-16T08:49:09.586Z,0.90
2018-12-16T08:51:45.289Z,0.90
2018-12-16T08:54:21.106Z,0.90
2018-12-16T08:56:56.993Z,0.90
2018-12-16T08:59:32.743Z,0.90
2018-12-16T09:02:08.610Z,0.80
2018-12-16T09:04:44.345Z,0.90
2018-12-16T09:07:20.237Z,0.90
2018-12-16T09:09:55.914Z,1.00
2018-12-16T09:12:31.547Z,1.00
2018-12-16T09:15:07.527Z,1.00
2018-12-16T09:17:43.931Z,1.00
2018-12-16T09:20:19.731Z,1.10
2018-12-16T09:22:56.515Z,1.00
2018-12-16T09:25:32.512Z,1.10
2018-12-16T09:28:08.998Z,1.10
2018-12-16T09:30:44.839Z,1.00
2018-12-16T09:33:21.457Z,1.00
2018-12-16T09:35:57.406Z,1.10
2018-12-16T09:38:33.393Z,1.10
2018-12-16T09:41:09.090Z,1.20
2018-12-16T09:43:45.125Z,1.10
2018-12-16T09:46:21.675Z,1.20
2018-12-16T09:48:56.643Z,1.20
2018-12-16T09:51:32.484Z,1.20
2018-12-16T09:54:08.258Z,1.20
2018-12-16T09:56:44.832Z,1.20
2018-12-16T09:59:21.134Z,1.30
2018-12-16T10:01:56.859Z,1.20
2018-12-16T10:04:32.964Z,1.20
2018-12-16T10:07:09.015Z,1.20
2018-12-16T10:09:45.867Z,1.20
2018-12-16T10:12:21.912Z,1.30
2018-12-16T10:14:57.671Z,1.20
2018-12-16T10:17:33.718Z,1.30
2018-12-16T10:20:11.131Z,1.30
2018-12-16T10:22:47.931Z,1.30
2018-12-16T10:25:23.984Z,1.40
2018-12-16T10:28:00.010Z,1.30
2018-12-16T10:30:36.741Z,1.40
2018-12-16T10:33:12.730Z,1.40
2018-12-16T10:35:48.521Z,1.50
2018-12-16T10:38:24.544Z,1.50
2018-12-16T10:41:00.235Z,1.50
2018-12-16T10:43:36.460Z,1.40
2018-12-16T10:46:13.478Z,1.50
2018-12-16T10:48:49.683Z,1.50
2018-12-16T10:51:25.511Z,1.50
2018-12-16T10:54:01.871Z,1.50
2018-12-16T10:56:38.678Z,1.40
2018-12-16T10:59:14.448Z,1.50
2018-12-16T11:01:51.029Z,1.50
2018-12-16T11:04:27.228Z,1.50
2018-12-16T11:07:03.083Z,1.50
2018-12-16T11:09:38.712Z,1.50
2018-12-16T11:12:14.903Z,1.40
2018-12-16T11:14:51.402Z,1.50
2018-12-16T11:17:27.407Z,1.50
2018-12-16T11:20:03.498Z,1.50
2018-12-16T11:22:40.123Z,1.60
2018-12-16T11:25:17.131Z,1.60
2018-12-16T11:27:52.900Z,1.60
2018-12-16T11:30:28.690Z,1.60
2018-12-16T11:33:05.227Z,1.60
2018-12-16T11:35:40.998Z,1.60
2018-12-16T11:38:16.939Z,1.60
2018-12-16T11:40:52.806Z,1.70
2018-12-16T11:43:29.353Z,1.70
2018-12-16T11:46:05.218Z,1.70
2018-12-16T11:48:41.891Z,1.70
2018-12-16T11:51:17.746Z,1.70
2018-12-16T11:53:54.394Z,1.80
2018-12-16T11:56:30.330Z,1.80
2018-12-16T11:59:07.143Z,1.90
2018-12-16T12:01:43.994Z,1.90
2018-12-16T12:04:21.608Z,1.90
2018-12-16T12:06:57.584Z,1.90
2018-12-16T12:09:33.270Z,1.90
2018-12-16T12:12:09.479Z,1.90
2018-12-16T12:14:46.651Z,1.90
2018-12-16T12:17:22.791Z,2.00
2018-12-16T12:19:58.643Z,1.90
2018-12-16T12:22:34.699Z,2.00
2018-12-16T12:25:10.405Z,2.00
2018-12-16T12:27:49.025Z,2.10
2018-12-16T12:30:25.129Z,2.10
2018-12-16T12:33:01.570Z,2.10
2018-12-16T12:35:37.415Z,2.10
2018-12-16T12:38:13.184Z,2.10
2018-12-16T12:40:49.019Z,2.20
2018-12-16T12:43:25.815Z,2.20
2018-12-16T12:46:02.446Z,2.30
2018-12-16T12:48:39.409Z,2.30
2018-12-16T12:51:16.205Z,2.30
2018-12-16T12:53:51.948Z,2.30
2018-12-16T12:56:27.931Z,2.30
2018-12-16T12:59:03.868Z,2.30
2018-12-16T13:01:39.537Z,2.40
2018-12-16T13:04:16.327Z,2.40
2018-12-16T13:06:52.128Z,2.40
2018-12-16T13:09:29.192Z,2.40
2018-12-16T13:12:05.315Z,2.40
2018-12-16T13:14:41.031Z,2.40
2018-12-16T13:17:16.918Z,2.40
2018-12-16T13:19:52.804Z,2.50
2018-12-16T13:22:28.675Z,2.50
2018-12-16T13:25:15.754Z,2.50
2018-12-16T13:27:52.235Z,2.50
2018-12-16T13:30:28.039Z,2.50
2018-12-16T13:33:03.922Z,2.50
2018-12-16T13:35:39.678Z,2.60
2018-12-16T13:38:15.570Z,2.60
2018-12-16T13:40:52.319Z,2.60
2018-12-16T13:43:28.211Z,2.60
2018-12-16T13:46:03.997Z,2.60
2018-12-16T13:48:40.943Z,2.50
2018-12-16T13:51:16.644Z,2.60
2018-12-16T13:53:52.444Z,2.60
2018-12-16T13:56:28.482Z,2.50
2018-12-16T13:59:04.561Z,2.60
2018-12-16T14:01:41.082Z,2.60
2018-12-16T14:04:16.805Z,2.60
2018-12-16T14:06:52.584Z,2.60
2018-12-16T14:09:28.655Z,2.70
2018-12-16T14:12:05.432Z,2.70
2018-12-16T14:14:40.511Z,2.70
2018-12-16T14:17:16.922Z,2.70
2018-12-16T14:19:52.167Z,2.70
2018-12-16T14:22:27.939Z,2.80
2018-12-16T14:25:04.208Z,2.70
2018-12-16T14:27:40.818Z,2.80
2018-12-16T14:30:16.759Z,2.80
2018-12-16T14:32:52.647Z,2.80
2018-12-16T14:35:27.841Z,2.80
2018-12-16T14:38:04.210Z,2.80
2018-12-16T14:40:39.607Z,2.80
2018-12-16T14:43:15.291Z,2.80
2018-12-16T14:45:50.214Z,2.80
2018-12-16T14:48:25.730Z,2.80
2018-12-16T14:51:00.928Z,2.80
2018-12-16T14:53:37.040Z,2.80
2018-12-16T14:56:13.051Z,2.80
2018-12-16T14:58:49.464Z,2.80
2018-12-16T15:01:24.697Z,2.80
2018-12-16T15:04:00.187Z,2.70
2018-12-16T15:06:36.211Z,2.80
2018-12-16T15:09:12.587Z,2.70
2018-12-16T15:11:48.467Z,2.70
2018-12-16T15:14:24.892Z,2.80
2018-12-16T15:16:59.919Z,2.80
2018-12-16T15:19:35.998Z,2.80
2018-12-16T15:22:11.502Z,2.80
2018-12-16T15:24:46.271Z,2.80
2018-12-16T15:27:21.226Z,2.80
2018-12-16T15:29:57.095Z,2.80
2018-12-16T15:32:32.746Z,2.80
2018-12-16T15:35:08.653Z,2.80
2018-12-16T15:37:44.635Z,2.90
2018-12-16T15:40:20.639Z,2.90
2018-12-16T15:42:56.428Z,2.90
2018-12-16T15:45:32.258Z,2.90
2018-12-16T15:48:07.202Z,2.90
2018-12-16T15:50:43.034Z,2.90
2018-12-16T15:53:17.829Z,2.90
2018-12-16T15:55:53.906Z,2.90
2018-12-16T15:58:29.786Z,2.90
2018-12-16T16:01:06.590Z,2.90
2018-12-16T16:03:42.514Z,2.90
2018-12-16T16:06:18.376Z,2.90
2018-12-16T16:08:53.879Z,2.90
2018-12-16T16:11:29.822Z,2.90
2018-12-16T16:14:05.842Z,2.90
2018-12-16T16:16:42.395Z,2.90
2018-12-16T16:19:17.304Z,2.90
2018-12-16T16:21:53.790Z,2.90
2018-12-16T16:24:29.857Z,2.90
2018-12-16T16:27:04.997Z,3.00
2018-12-16T16:29:40.611Z,3.00
2018-12-16T16:32:15.807Z,3.00
2018-12-16T16:34:51.387Z,3.00
2018-12-16T16:37:27.540Z,3.00
2018-12-16T16:40:03.691Z,3.00
2018-12-16T16:42:39.235Z,3.00
2018-12-16T16:45:14.597Z,3.00
2018-12-16T16:47:50.687Z,3.00
2018-12-16T16:50:27.435Z,3.00
2018-12-16T16:53:02.566Z,3.10
2018-12-16T16:55:38.438Z,3.10
2018-12-16T16:58:14.321Z,3.10
2018-12-16T17:00:50.187Z,3.10
2018-12-16T17:03:26.203Z,3.10
2018-12-16T17:06:02.184Z,3.10
2018-12-16T17:08:37.978Z,3.10
2018-12-16T17:11:13.270Z,3.10
2018-12-16T17:13:49.096Z,3.10
2018-12-16T17:16:25.300Z,3.10
2018-12-16T17:19:02.021Z,3.00
2018-12-16T17:21:38.045Z,3.00
2018-12-16T17:24:13.731Z,3.10
2018-12-16T17:26:49.617Z,3.10
2018-12-16T17:29:25.584Z,3.10
2018-12-16T17:32:01.375Z,3.10
2018-12-16T17:34:38.247Z,3.20
2018-12-16T17:37:13.928Z,3.10
2018-12-16T17:39:48.993Z,3.10
2018-12-16T17:42:24.218Z,3.10
2018-12-16T17:45:00.011Z,3.20
2018-12-16T17:47:35.966Z,3.20
2018-12-16T17:50:11.912Z,3.20
2018-12-16T17:52:48.702Z,3.20
2018-12-16T17:55:25.470Z,3.30
2018-12-16T17:58:00.921Z,3.20
2018-12-16T18:00:36.211Z,3.30
2018-12-16T18:03:12.122Z,3.30
2018-12-16T18:05:47.864Z,3.30
2018-12-16T18:08:23.807Z,3.30
2018-12-16T18:10:59.679Z,3.30
2018-12-16T18:13:35.413Z,3.30
2018-12-16T18:16:11.483Z,3.40
2018-12-16T18:18:48.052Z,3.40
2018-12-16T18:21:24.668Z,3.40
2018-12-16T18:23:59.730Z,3.40
2018-12-16T18:26:36.571Z,3.40
2018-12-16T18:29:12.443Z,3.40
2018-12-16T18:31:48.271Z,3.40
2018-12-16T18:34:24.822Z,3.40
2018-12-16T18:36:59.878Z,3.40
2018-12-16T18:39:35.718Z,3.50
2018-12-16T18:42:12.829Z,3.50
2018-12-16T18:44:48.803Z,3.50
2018-12-16T18:47:25.719Z,3.50
2018-12-16T18:50:01.535Z,3.50
2018-12-16T18:52:36.548Z,3.50
2018-12-16T18:55:11.635Z,3.60
2018-12-16T18:57:47.432Z,3.50
2018-12-16T19:00:23.182Z,3.50
2018-12-16T19:02:58.986Z,3.60
2018-12-16T19:05:34.990Z,3.60
2018-12-16T19:08:10.785Z,3.60
2018-12-16T19:10:46.346Z,3.60
2018-12-16T19:13:22.206Z,3.60
2018-12-16T19:16:00.113Z,3.60
2018-12-16T19:18:36.802Z,3.60
2018-12-16T19:21:11.742Z,3.70
2018-12-16T19:23:48.615Z,3.70
2018-12-16T19:26:24.502Z,3.70
2018-12-16T19:28:59.562Z,3.70
2018-12-16T19:31:35.911Z,3.70
2018-12-16T19:34:11.686Z,3.70
2018-12-16T19:36:48.300Z,3.70
2018-12-16T19:39:23.422Z,3.70
2018-12-16T19:41:58.981Z,3.70
2018-12-16T19:44:34.918Z,3.70
2018-12-16T19:47:10.931Z,3.70
2018-12-16T19:49:46.679Z,3.70
2018-12-16T19:52:22.418Z,3.70
2018-12-16T19:54:57.875Z,3.70
2018-12-16T19:57:33.383Z,3.80
2018-12-16T20:00:09.321Z,3.80
2018-12-16T20:02:45.083Z,3.80
2018-12-16T20:05:20.542Z,3.80
2018-12-16T20:07:56.030Z,3.80
2018-12-16T20:10:33.002Z,3.80
2018-12-16T20:13:08.805Z,3.80
2018-12-16T20:15:44.450Z,3.90
2018-12-16T20:18:20.674Z,3.90
2018-12-16T20:20:56.493Z,3.90
2018-12-16T20:23:32.328Z,3.90
2018-12-16T20:26:09.010Z,3.90
2018-12-16T20:28:44.128Z,3.90
2018-12-16T20:31:19.926Z,3.90
2018-12-16T20:33:56.010Z,3.90
2018-12-16T20:36:31.777Z,3.90
2018-12-16T20:39:08.162Z,3.90
2018-12-16T20:41:45.265Z,3.90
2018-12-16T20:44:22.347Z,4.00
2018-12-16T20:46:57.765Z,3.90
2018-12-16T20:49:33.483Z,4.00
2018-12-16T20:52:08.424Z,4.00
2018-12-16T20:54:44.535Z,4.00
2018-12-16T20:57:20.754Z,4.00
2018-12-16T20:59:56.408Z,4.00
2018-12-16T21:02:34.333Z,3.90
2018-12-16T21:05:10.358Z,4.00
2018-12-16T21:07:46.138Z,4.00
2018-12-16T21:10:33.146Z,4.00
2018-12-16T21:13:14.833Z,4.00
2018-12-16T21:15:56.794Z,4.00
2018-12-16T21:18:32.228Z,3.90
2018-12-16T21:21:07.166Z,3.90
2018-12-16T21:23:42.732Z,4.00
2018-12-16T21:26:19.983Z,4.00
2018-12-16T21:28:54.859Z,4.00
2018-12-16T21:31:31.264Z,4.00
2018-12-16T21:34:06.814Z,4.00
2018-12-16T21:36:43.069Z,4.00
2018-12-16T21:39:19.263Z,4.00
2018-12-16T21:41:54.842Z,4.00
2018-12-16T21:44:30.791Z,4.00
2018-12-16T21:47:06.458Z,3.90
2018-12-16T21:49:42.478Z,4.00
2018-12-16T21:52:18.788Z,4.00
2018-12-16T21:54:53.939Z,3.90
2018-12-16T21:57:32.957Z,3.90
2018-12-16T22:00:09.424Z,3.90
2018-12-16T22:02:44.672Z,3.90
2018-12-16T22:05:24.793Z,3.90
2018-12-16T22:08:00.640Z,3.90
2018-12-16T22:10:35.870Z,3.80
2018-12-16T22:13:11.765Z,3.90
2018-12-16T22:15:48.265Z,3.90
2018-12-16T22:18:23.585Z,3.90
2018-12-16T22:20:59.469Z,3.80
2018-12-16T22:23:34.642Z,3.90
2018-12-16T22:26:10.484Z,3.80
2018-12-16T22:28:47.300Z,3.90
2018-12-16T22:31:22.973Z,3.80
2018-12-16T22:33:58.529Z,3.90
2018-12-16T22:36:34.563Z,3.90
2018-12-16T22:39:10.323Z,3.80
2018-12-16T22:41:45.980Z,3.80
2018-12-16T22:44:22.669Z,3.80
2018-12-16T22:46:57.893Z,3.90
2018-12-16T22:49:33.053Z,3.70
2018-12-16T22:52:08.957Z,3.70
2018-12-16T22:54:44.049Z,3.70
2018-12-16T22:57:19.927Z,3.70
2018-12-16T22:59:55.082Z,3.70
2018-12-16T23:02:30.961Z,3.70
2018-12-16T23:05:06.608Z,3.70
2018-12-16T23:07:42.730Z,3.70
2018-12-16T23:10:18.526Z,3.60
2018-12-16T23:12:54.331Z,3.60
2018-12-16T23:15:30.277Z,3.60
2018-12-16T23:18:06.438Z,3.70
2018-12-16T23:20:42.221Z,3.60
2018-12-16T23:23:18.074Z,3.60
2018-12-16T23:25:53.853Z,3.50
2018-12-16T23:28:29.338Z,3.60
2018-12-16T23:31:05.495Z,3.50
2018-12-16T23:33:40.659Z,3.60
2018-12-16T23:36:16.595Z,3.60
2018-12-16T23:38:51.548Z,3.60
2018-12-16T23:41:28.257Z,3.60
2018-12-16T23:44:03.183Z,3.50
2018-12-16T23:46:38.930Z,3.50
2018-12-16T23:49:13.805Z,3.50
2018-12-16T23:51:49.746Z,3.50
2018-12-16T23:54:24.567Z,3.50
2018-12-16T23:56:59.650Z,3.50
2018-12-16T23:59:34.625Z,3.50
